Nearby METAR Reports

 

KDVT - Phoenix/Deer Vly, Arizona, USA
Distance from station: SSE 14mi, 22km
Updated: 10/21/2020 5:53pm
Clear
Clear
 Wind from SW
Wind: SW 5 mph , 7 km/h
Temperature: 90°F , 32°C
Dew Point: 30°F , -1°C
Humidity: 12%
Barometer: 29.75 inHg , 1007.5 hPa
Clouds: Clear
Visibility: 10 miles , 16 km
2020/10/22 00:53 KDVT 220053Z 23004KT 10SM CLR 32/M01 A2975 RMK AO2 SLP052 T03171011
KSDL - Scottsdale, Arizona, USA
Distance from station: SE 22mi, 35km
Updated: 10/21/2020 5:53pm
Clear
Clear
 Wind from SW
Wind: SW 3 mph , 6 km/h
Temperature: 90°F , 32°C
Dew Point: 34°F , 1°C
Humidity: 14%
Barometer: 29.76 inHg , 1007.8 hPa
Clouds: Clear
Visibility: 10 miles , 16 km
2020/10/22 00:53 KSDL 220053Z 22003KT 10SM CLR 32/01 A2976 RMK AO2 SLP054 T03170006
 
KGEU - Glendale, Arizona, USA
Distance from station: SSW 25mi, 41km
Updated: 10/21/2020 5:55pm
Few Clouds
Few Clouds
 Wind from calm
Wind: Calm
Temperature: 90°F , 32°C
Dew Point: 32°F , 0°C
Humidity: 13%
Barometer: 29.73 inHg , 1006.8 hPa
Clouds: Few Clouds
Visibility: 10 miles , 16 km
Cloud details: Few Clouds 25000 ft
2020/10/22 00:55 KGEU 220055Z 00000KT 10SM FEW250 32/00 A2973
KLUF - Luke Afb/Glendal, Arizona, USA
Distance from station: SSW 28mi, 45km
Updated: 10/21/2020 4:58pm
Clear
Clear
 Wind from S
Wind: S 5 mph , 7 km/h
Temperature: 95°F , 35°C
Dew Point: 27°F , -3°C
Humidity: 9%
Barometer: 29.71 inHg , 1006.1 hPa
Clouds: Clear
Visibility: 10 miles , 16 km
2020/10/21 23:58 KLUF 212358Z AUTO 19004KT 10SM CLR 35/M03 A2971 RMK AO2 SLP049 T03451030 10354 20282 57015 $
 
KPHX - Phoenix/Sky Hrbr, Arizona, USA
Distance from station: SSE 31mi, 51km
Updated: 10/21/2020 5:51pm
Few Clouds
Few Clouds
 Wind from NW
Wind: NW 5 mph , 7 km/h
Temperature: 93°F , 34°C
Dew Point: 28°F , -2°C
Humidity: 10%
Barometer: 29.71 inHg , 1006.1 hPa
Clouds: Few Clouds
Visibility: 10 miles , 16 km
Cloud details: Few Clouds 12000 ft
Few Clouds 16000 ft
Few Clouds 25000 ft
2020/10/22 00:51 KPHX 220051Z 32004KT 10SM FEW120 FEW160 FEW250 34/M02 A2971 RMK AO2 SLP041 T03391022
KGYR - Goodyear Municip, Arizona, USA
Distance from station: SSW 34mi, 55km
Updated: 10/21/2020 5:47pm
Clear
Clear
 Wind from W
Wind: W 6 mph , 9 km/h
Temperature: 91°F , 33°C
Dew Point: 32°F , 0°C
Humidity: 12%
Barometer: 29.72 inHg , 1006.4 hPa
Clouds: Clear
Visibility: 10 miles , 16 km
2020/10/22 00:47 KGYR 220047Z 26005KT 10SM SKC 33/00 A2972
 
KFFZ - Mesa/Falcon Fld, Arizona, USA
Distance from station: SE 37mi, 60km
Updated: 10/21/2020 5:54pm
Clear
Clear
 Wind from WNW
Wind: WNW 3 mph , 6 km/h
Temperature: 91°F , 33°C
Dew Point: 28°F , -2°C
Humidity: 10%
Barometer: 29.73 inHg , 1006.8 hPa
Clouds: Clear
Visibility: 10 miles , 16 km
2020/10/22 00:54 KFFZ 220054Z 30003KT 10SM CLR 33/M02 A2973 RMK AO2 SLP045 T03281017
KBXK - Buckeye, Arizona, USA
Distance from station: SW 45mi, 72km
Updated: 10/21/2020 5:55pm
Clear
Clear
 
Temperature: 84°F , 29°C
Dew Point: 39°F , 4°C
Humidity: 20%
Barometer: 29.72 inHg , 1006.4 hPa
Clouds: Clear
Visibility: 7 miles , 11 km
2020/10/22 00:55 KBXK 220055Z AUTO 7SM CLR 29/04 A2972 RMK A01
 
KIWA - Chandler/Mesa, Arizona, USA
Distance from station: SE 49mi, 78km
Updated: 10/21/2020 3:50pm
NOT Current
Partly cloudy
Partly cloudy
 Wind from N
Wind: N 3 mph , 6 km/h
Temperature: 93°F , 34°C
Dew Point: 36°F , 2°C
Humidity: 13%
Barometer: 29.76 inHg , 1007.8 hPa
Clouds: Partly cloudy
Visibility: 10 miles , 16 km
Cloud details: Partly cloudy 22000 ft
2020/10/21 22:50 KIWA 212250Z 01003KT 10SM SCT220 34/02 A2976
KPAN - Payson, Arizona, USA
Distance from station: ENE 53mi, 85km
Updated: 10/21/2020 5:55pm
Clear
Clear
 Wind from calm
Wind: Calm
Temperature: 70°F , 21°C
Dew Point: 19°F , -7°C
Humidity: 15%
Barometer: 30.02 inHg , 1016.6 hPa
Clouds: Clear
Visibility: 10 miles , 16 km
2020/10/22 00:55 KPAN 220055Z AUTO 00000KT 10SM CLR 21/M07 A3002 RMK AO2
 
KPRC - Prescott, Arizona, USA
Distance from station: NNW 56mi, 90km
Updated: 10/21/2020 5:53pm
Clear
Clear
 Wind from SW
Wind: SW 8 mph , 13 km/h
Temperature: 68°F , 20°C
Dew Point: 21°F , -6°C
Humidity: 17%
Barometer: 29.99 inHg , 1015.6 hPa
Clouds: Clear
Visibility: 10 miles , 16 km
2020/10/22 00:53 KPRC 220053Z 23007KT 10SM CLR 20/M06 A2999 RMK AO2 SLP100 T02001056
KCGZ - Casa Granda, Arizona, USA
Distance from station: SSE 67mi, 109km
Updated: 10/21/2020 5:56pm
Clear
Clear
 Wind from N
Wind: N 7 mph , 11 km/h
Temperature: 88°F , 31°C
Dew Point: 30°F , -1°C
Humidity: 13%
Barometer: 29.75 inHg , 1007.5 hPa
Clouds: Clear
Visibility: 10 miles , 16 km
2020/10/22 00:56 KCGZ 220056Z AUTO 35006KT 10SM CLR 31/M01 A2975 RMK AO2 SLP061 T03061011
 
KSEZ - Sedona, Arizona, USA
Distance from station: NNE 70mi, 113km
Updated: 10/21/2020 5:55pm
Clear
Clear
 Wind from SSW
Wind: SSW 9 mph , 15 km/h
Temperature: 75°F , 24°C
Dew Point: 21°F , -6°C
Humidity: 13%
Barometer: 29.97 inHg , 1014.9 hPa
Clouds: Clear
Visibility: 10 miles , 16 km
2020/10/22 00:55 KSEZ 220055Z AUTO 20008KT 10SM CLR 24/M06 A2997 RMK AO2
KGXF - Gila Bend (aaf), Arizona, USA
Distance from station: SSW 77mi, 124km
Updated: 10/21/2020 4:58pm
Clear
Clear
 Wind from WNW
Wind: WNW 8 mph , 13 km/h
Temperature: 95°F , 35°C
Dew Point: 28°F , -2°C
Humidity: 9%
Barometer: 29.69 inHg , 1005.4 hPa
Clouds: Clear
Visibility: 9 miles , 14 km
2020/10/21 23:58 KGXF 212358Z AUTO 30007KT 9SM CLR 35/M02 A2969 RMK AO2 SLP042 T03511025 10359 20298 57012
 
KP08 - Coolidge Muni, Arizona, USA
Distance from station: SSE 77mi, 124km
Updated: 07/23/2020 8:10am
NOT Current
Nearby thunderstorm, Clear
Nearby thunderstorm, Clear
 Wind from SE
Wind: SE 20 mph , 31 km/h, Gust: 25 mph , 41 km/h
Temperature: 81°F , 27°C
Heat Index: 83°F , 28°C
Dew Point: 66°F , 19°C
Humidity: 62%
Barometer: 29.93 inHg , 1013.5 hPa
Summary: Nearby Thunderstorm
Clouds: Clear
Visibility: 10 miles , 16 km
2020/07/23 15:10 KP08 231510Z AUTO 14017G22KT 10SM VCTS CLR 27/19 A2993 RMK LTNG DSNT SE-S
KFLG - Flagstaff, Arizona, USA
Distance from station: NNE 91mi, 146km
Updated: 10/21/2020 4:57pm
Clear
Clear
 Wind from SSW
Wind: SSW 14 mph , 22 km/h
Temperature: 66°F , 19°C
Dew Point: 18°F , -8°C
Humidity: 15%
Barometer: 30.10 inHg , 1019.3 hPa
Clouds: Clear
Visibility: 10 miles , 16 km
2020/10/21 23:57 KFLG 212357Z 21012KT 10SM CLR 19/M08 A3010 RMK AO2 SLP127 T01891083 10211 20189 56007
 
KCMR - Williams Clark, Arizona, USA
Distance from station: N 98mi, 158km
Updated: 10/21/2020 5:55pm
Clear
Clear
 Wind from SW
Wind: SW 7 mph , 11 km/h
Temperature: 64°F , 18°C
Dew Point: 10°F , -12°C
Humidity: 12%
Barometer: 30.09 inHg , 1019 hPa
Clouds: Clear
Visibility: 10 miles , 16 km
2020/10/22 00:55 KCMR 220055Z AUTO 22006KT 10SM CLR 18/M12 A3009 RMK AO2